Mansura Junction, Louisiana
Current Conditions -  °F | °C
As of 12:53 AM on Saturday 25 Oct 2014 (Local Time) from KESF Reporting Station
Clear Clear  
Wind Chill: 47°   Ceiling: Unl
Heat Index: 47°   Visibility: 8mi
Dew Point: 46°   Wind: 0mph
Humidity: 97%   Direction: NA
Pressure: 30.13"   Gusts: NA
Location:  31.0649°N, 92.0567°W
Report Text: KESF 250553Z AUTO 00000KT 8SM CLR 08/08 A3013 RMK AO2 SLP203 T00830078 10150 20078 402390061 58000
Loading
Personal Weather Stations






























Interactive Weather Map
Tropical Storm Tracking
New forecast layout! Learn more

10-Day Weather Forecast

Advertisements
Track Severe Weather on mobile